createdAt,value
2022-08-16T00:01:52.273Z,100.00
2022-08-16T00:04:20.984Z,100.00
2022-08-16T00:06:49.855Z,100.00
2022-08-16T00:09:18.689Z,100.00
2022-08-16T00:11:48.026Z,100.00
2022-08-16T00:14:19.894Z,100.00
2022-08-16T00:17:05.812Z,100.00
2022-08-16T00:19:22.509Z,100.00
2022-08-16T00:21:54.515Z,100.00
2022-08-16T00:24:31.381Z,100.00
2022-08-16T00:26:54.322Z,100.00
2022-08-16T00:29:24.746Z,100.00
2022-08-16T00:31:59.720Z,100.00
2022-08-16T00:34:44.088Z,100.00
2022-08-16T00:36:56.721Z,100.00
2022-08-16T00:39:27.388Z,100.00
2022-08-16T00:41:57.715Z,100.00
2022-08-16T00:44:31.805Z,100.00
2022-08-16T00:47:06.110Z,100.00
2022-08-16T00:49:39.783Z,100.00
2022-08-16T00:52:01.310Z,100.00
2022-08-16T00:54:32.962Z,100.00
2022-08-16T00:57:05.100Z,100.00
2022-08-16T00:59:35.614Z,100.00
2022-08-16T01:02:30.238Z,100.00
2022-08-16T01:04:38.016Z,100.00
2022-08-16T01:07:07.732Z,100.00
2022-08-16T01:09:38.433Z,100.00
2022-08-16T01:12:11.051Z,100.00
2022-08-16T01:14:48.916Z,100.00
2022-08-16T01:17:20.873Z,100.00
2022-08-16T01:19:52.989Z,100.00
2022-08-16T01:22:59.110Z,100.00
2022-08-16T01:24:56.779Z,100.00
2022-08-16T01:27:27.993Z,100.00
2022-08-16T01:30:19.316Z,100.00
2022-08-16T01:32:41.088Z,100.00
2022-08-16T01:35:16.724Z,100.00
2022-08-16T01:37:43.434Z,100.00
2022-08-16T01:40:15.498Z,100.00
2022-08-16T01:42:48.205Z,100.00
2022-08-16T01:45:19.706Z,100.00
2022-08-16T01:47:51.188Z,100.00
2022-08-16T01:50:43.351Z,100.00
2022-08-16T01:52:56.155Z,100.00
2022-08-16T01:55:35.932Z,100.00
2022-08-16T01:58:07.262Z,100.00
2022-08-16T02:00:37.732Z,100.00
2022-08-16T02:03:12.537Z,100.00
2022-08-16T02:05:46.605Z,100.00
2022-08-16T02:08:33.782Z,100.00
2022-08-16T02:10:42.477Z,100.00
2022-08-16T02:13:12.978Z,100.00
2022-08-16T02:15:43.913Z,100.00
2022-08-16T02:18:14.008Z,100.00
2022-08-16T02:20:45.959Z,100.00
2022-08-16T02:23:17.139Z,100.00
2022-08-16T02:25:52.730Z,100.00
2022-08-16T02:28:19.176Z,100.00
2022-08-16T02:30:51.718Z,100.00
2022-08-16T02:33:24.708Z,100.00
2022-08-16T02:35:58.219Z,100.00
2022-08-16T02:38:23.441Z,100.00
2022-08-16T02:40:54.608Z,100.00
2022-08-16T02:43:26.603Z,100.00
2022-08-16T02:45:55.256Z,100.00
2022-08-16T02:48:28.859Z,100.00
2022-08-16T02:51:05.933Z,100.00
2022-08-16T02:53:26.271Z,100.00
2022-08-16T02:55:55.456Z,100.00
2022-08-16T02:58:25.009Z,100.00
2022-08-16T03:00:56.104Z,100.00
2022-08-16T03:04:39.727Z,100.00
2022-08-16T03:05:58.248Z,100.00
2022-08-16T03:08:51.787Z,100.00
2022-08-16T03:10:58.404Z,100.00
2022-08-16T03:13:28.586Z,100.00
2022-08-16T03:15:59.153Z,100.00
2022-08-16T03:18:34.563Z,100.00
2022-08-16T03:20:59.843Z,100.00
2022-08-16T03:23:35.776Z,100.00
2022-08-16T03:26:00.837Z,100.00
2022-08-16T03:28:29.591Z,100.00
2022-08-16T03:30:59.605Z,100.00
2022-08-16T03:33:30.468Z,100.00
2022-08-16T03:36:30.138Z,100.00
2022-08-16T03:38:33.962Z,100.00
2022-08-16T03:41:24.587Z,100.00
2022-08-16T03:43:51.121Z,100.00
2022-08-16T03:46:08.061Z,100.00
2022-08-16T03:48:41.253Z,100.00
2022-08-16T03:51:14.847Z,100.00
2022-08-16T03:53:45.466Z,100.00
2022-08-16T03:56:19.993Z,100.00
2022-08-16T03:58:48.413Z,100.00
2022-08-16T04:01:18.350Z,100.00
2022-08-16T04:03:47.319Z,100.00
2022-08-16T04:06:17.733Z,100.00
2022-08-16T04:08:49.050Z,100.00
2022-08-16T04:11:18.056Z,100.00
2022-08-16T04:14:01.311Z,100.00
2022-08-16T04:16:26.794Z,100.00
2022-08-16T04:18:50.343Z,100.00
2022-08-16T04:21:29.426Z,100.00
2022-08-16T04:23:50.118Z,100.00
2022-08-16T04:26:20.562Z,100.00
2022-08-16T04:28:53.459Z,100.00
2022-08-16T04:31:21.926Z,100.00
2022-08-16T04:33:51.898Z,100.00
2022-08-16T04:36:24.296Z,100.00
2022-08-16T04:38:53.888Z,100.00
2022-08-16T04:41:32.874Z,100.00
2022-08-16T04:43:53.900Z,100.00
2022-08-16T04:47:00.674Z,100.00
2022-08-16T04:48:54.754Z,100.00
2022-08-16T04:51:24.316Z,100.00
2022-08-16T04:53:54.674Z,100.00
2022-08-16T04:56:24.586Z,100.00
2022-08-16T04:58:57.686Z,100.00
2022-08-16T05:01:25.065Z,100.00
2022-08-16T05:04:00.236Z,100.00
2022-08-16T05:06:42.287Z,100.00
2022-08-16T05:08:56.991Z,100.00
2022-08-16T05:11:32.046Z,100.00
2022-08-16T05:14:06.923Z,100.00
2022-08-16T05:16:31.543Z,100.00
2022-08-16T05:19:02.276Z,100.00
2022-08-16T05:21:37.956Z,100.00
2022-08-16T05:24:06.149Z,100.00
2022-08-16T05:26:43.317Z,100.00
2022-08-16T05:29:11.088Z,100.00
2022-08-16T05:31:47.929Z,100.00
2022-08-16T05:34:19.749Z,100.00
2022-08-16T05:36:40.206Z,100.00
2022-08-16T05:39:10.710Z,100.00
2022-08-16T05:41:45.237Z,100.00
2022-08-16T05:44:22.981Z,100.00
2022-08-16T05:46:43.591Z,100.00
2022-08-16T05:49:22.426Z,100.00
2022-08-16T05:51:47.758Z,100.00
2022-08-16T05:54:25.199Z,100.00
2022-08-16T05:56:50.126Z,100.00
2022-08-16T05:59:19.655Z,100.00
2022-08-16T06:01:53.179Z,100.00
2022-08-16T06:04:35.128Z,100.00
2022-08-16T06:06:56.709Z,100.00
2022-08-16T06:09:43.838Z,100.00
2022-08-16T06:12:00.110Z,100.00
2022-08-16T06:14:30.110Z,100.00
2022-08-16T06:17:05.576Z,100.00
2022-08-16T06:19:33.800Z,100.00
2022-08-16T06:22:03.783Z,100.00
2022-08-16T06:24:53.843Z,100.00
2022-08-16T06:27:03.862Z,100.00
2022-08-16T06:29:34.052Z,100.00
2022-08-16T06:32:04.313Z,100.00
2022-08-16T06:34:56.168Z,100.00
2022-08-16T06:37:05.397Z,100.00
2022-08-16T06:39:49.203Z,100.00
2022-08-16T06:42:09.596Z,100.00
2022-08-16T06:44:49.087Z,100.00
2022-08-16T06:47:53.450Z,100.00
2022-08-16T06:49:58.986Z,100.00
2022-08-16T06:52:57.885Z,100.00
2022-08-16T06:55:03.031Z,100.00
2022-08-16T06:57:31.833Z,100.00
2022-08-16T07:00:02.636Z,100.00
2022-08-16T07:02:35.810Z,100.00
2022-08-16T07:05:14.990Z,100.00
2022-08-16T07:07:37.412Z,100.00
2022-08-16T07:10:08.519Z,100.00
2022-08-16T07:13:03.457Z,100.00
2022-08-16T07:15:09.830Z,100.00
2022-08-16T07:17:40.555Z,100.00
2022-08-16T07:20:35.432Z,100.00
2022-08-16T07:22:52.592Z,100.00
2022-08-16T07:25:17.876Z,100.00
2022-08-16T07:27:48.450Z,100.00
2022-08-16T07:30:39.841Z,100.00
2022-08-16T07:32:52.231Z,100.00
2022-08-16T07:35:21.277Z,100.00
2022-08-16T07:37:50.142Z,100.00
2022-08-16T07:40:58.082Z,100.00
2022-08-16T07:43:00.137Z,100.00
2022-08-16T07:45:29.175Z,100.00
2022-08-16T07:47:59.836Z,100.00
2022-08-16T07:50:55.607Z,100.00
2022-08-16T07:53:02.090Z,100.00
2022-08-16T07:55:46.065Z,100.00
2022-08-16T07:58:03.234Z,100.00
2022-08-16T08:00:34.587Z,100.00
2022-08-16T08:03:04.080Z,100.00
2022-08-16T08:05:36.885Z,100.00
2022-08-16T08:08:11.969Z,100.00
2022-08-16T08:10:34.601Z,100.00
2022-08-16T08:13:04.449Z,100.00
2022-08-16T08:15:34.402Z,100.00
2022-08-16T08:18:29.305Z,100.00
2022-08-16T08:20:35.693Z,100.00
2022-08-16T08:23:06.601Z,100.00
2022-08-16T08:25:54.830Z,100.00
2022-08-16T08:28:16.544Z,100.00
2022-08-16T08:30:51.542Z,100.00
2022-08-16T08:33:17.070Z,100.00
2022-08-16T08:35:45.993Z,100.00
2022-08-16T08:38:16.998Z,100.00
2022-08-16T08:40:48.510Z,100.00
2022-08-16T08:43:18.240Z,100.00
2022-08-16T08:45:52.756Z,100.00
2022-08-16T08:48:34.142Z,100.00
2022-08-16T08:50:52.380Z,100.00
2022-08-16T08:53:21.869Z,100.00
2022-08-16T08:55:58.813Z,100.00
2022-08-16T08:58:22.866Z,100.00
2022-08-16T09:01:01.264Z,100.00
2022-08-16T09:03:32.484Z,100.00
2022-08-16T09:06:03.389Z,100.00
2022-08-16T09:08:35.025Z,100.00
2022-08-16T09:11:07.436Z,100.00
2022-08-16T09:13:38.482Z,100.00
2022-08-16T09:16:10.313Z,100.00
2022-08-16T09:18:40.999Z,100.00
2022-08-16T09:21:11.841Z,100.00
2022-08-16T09:23:40.764Z,100.00
2022-08-16T09:26:44.258Z,100.00
2022-08-16T09:29:15.580Z,100.00
2022-08-16T09:31:19.794Z,100.00
2022-08-16T09:33:51.942Z,100.00
2022-08-16T09:36:32.091Z,100.00
2022-08-16T09:38:50.978Z,100.00
2022-08-16T09:41:19.733Z,100.00
2022-08-16T09:43:59.177Z,100.00
2022-08-16T09:46:44.867Z,100.00
2022-08-16T09:48:51.187Z,100.00
2022-08-16T09:51:20.238Z,99.83
2022-08-16T09:53:53.645Z,96.57
2022-08-16T09:56:22.738Z,95.15
2022-08-16T09:59:03.458Z,100.00
2022-08-16T10:01:24.606Z,95.17
2022-08-16T10:04:02.482Z,96.62
2022-08-16T10:06:25.726Z,90.00
2022-08-16T10:09:05.644Z,90.53
2022-08-16T10:11:50.467Z,88.45
2022-08-16T10:14:16.649Z,88.54
2022-08-16T10:16:48.956Z,90.75
2022-08-16T10:19:19.383Z,89.63
2022-08-16T10:21:56.200Z,87.44
2022-08-16T10:24:28.540Z,85.15
2022-08-16T10:27:18.897Z,91.37
2022-08-16T10:29:21.195Z,87.02
2022-08-16T10:31:53.510Z,84.21
2022-08-16T10:34:31.125Z,84.51
2022-08-16T10:36:54.302Z,81.96
2022-08-16T10:39:21.041Z,82.70
2022-08-16T10:41:51.020Z,78.16
2022-08-16T10:44:19.961Z,73.88
2022-08-16T10:46:49.249Z,78.37
2022-08-16T10:49:18.500Z,78.88
2022-08-16T10:52:02.855Z,75.40
2022-08-16T10:54:29.568Z,82.69
2022-08-16T10:56:55.303Z,86.98
2022-08-16T10:59:43.999Z,78.29
2022-08-16T11:05:05.402Z,81.84
2022-08-16T11:07:08.076Z,73.13
2022-08-16T11:09:25.481Z,76.01
2022-08-16T11:12:13.224Z,81.79
2022-08-16T11:14:23.860Z,77.89
2022-08-16T11:17:11.085Z,75.64
2022-08-16T11:19:23.048Z,76.27
2022-08-16T11:24:41.216Z,80.18
2022-08-16T11:29:26.755Z,75.99
2022-08-16T11:31:54.031Z,77.00
2022-08-16T11:34:23.126Z,73.78
2022-08-16T11:37:01.161Z,78.25
2022-08-16T11:39:23.883Z,75.95
2022-08-16T11:41:53.124Z,72.44
2022-08-16T11:44:52.976Z,73.20
2022-08-16T11:46:53.750Z,73.58
2022-08-16T11:49:22.542Z,76.66
2022-08-16T11:51:51.688Z,71.46
2022-08-16T11:54:22.868Z,70.22
2022-08-16T11:56:57.422Z,73.71
2022-08-16T11:59:25.451Z,71.76
2022-08-16T12:01:59.572Z,68.25
2022-08-16T12:04:24.947Z,66.50
2022-08-16T12:06:54.858Z,70.02
2022-08-16T12:09:24.921Z,70.41
2022-08-16T12:11:54.659Z,69.79
2022-08-16T12:14:23.519Z,71.14
2022-08-16T12:16:55.768Z,67.81
2022-08-16T12:19:34.217Z,75.98
2022-08-16T12:21:58.281Z,69.58
2022-08-16T12:24:28.480Z,73.10
2022-08-16T12:26:57.796Z,71.13
2022-08-16T12:29:29.354Z,67.45
2022-08-16T12:32:01.067Z,68.29
2022-08-16T12:34:29.681Z,65.67
2022-08-16T12:36:59.547Z,65.37
2022-08-16T12:39:29.326Z,62.38
2022-08-16T12:41:58.120Z,65.50
2022-08-16T12:44:31.334Z,63.79
2022-08-16T12:47:12.287Z,63.99
2022-08-16T12:49:44.295Z,63.10
2022-08-16T12:52:32.768Z,65.24
2022-08-16T12:54:45.616Z,63.97
2022-08-16T12:57:15.972Z,60.84
2022-08-16T12:59:46.039Z,63.87
2022-08-16T13:02:33.195Z,64.90
2022-08-16T13:04:45.237Z,64.62
2022-08-16T13:07:14.170Z,64.60
2022-08-16T13:09:46.016Z,68.48
2022-08-16T13:12:22.382Z,65.20
2022-08-16T13:14:53.431Z,61.53
2022-08-16T13:17:26.441Z,60.06
2022-08-16T13:20:11.276Z,60.58
2022-08-16T13:22:26.040Z,62.12
2022-08-16T13:24:55.532Z,62.00
2022-08-16T13:28:02.604Z,65.12
2022-08-16T13:29:57.518Z,61.16
2022-08-16T13:32:39.393Z,58.88
2022-08-16T13:34:57.236Z,66.13
2022-08-16T13:37:26.134Z,59.42
2022-08-16T13:39:54.957Z,56.38
2022-08-16T13:42:25.294Z,58.35
2022-08-16T13:44:58.736Z,61.83
2022-08-16T13:47:30.010Z,56.01
2022-08-16T13:49:57.841Z,57.61
2022-08-16T13:52:33.492Z,55.53
2022-08-16T13:54:57.269Z,57.80
2022-08-16T13:57:53.615Z,61.38
2022-08-16T13:59:57.636Z,56.89
2022-08-16T14:02:26.950Z,58.63
2022-08-16T14:05:01.910Z,57.57
2022-08-16T14:07:26.920Z,58.02
2022-08-16T14:09:57.418Z,56.27
2022-08-16T14:12:30.593Z,56.59
2022-08-16T14:14:59.704Z,57.52
2022-08-16T14:17:29.532Z,59.39
2022-08-16T14:20:00.461Z,60.17
2022-08-16T14:22:35.641Z,56.96
2022-08-16T14:25:03.460Z,58.16
2022-08-16T14:27:33.582Z,59.48
2022-08-16T14:30:02.866Z,59.64
2022-08-16T14:32:33.664Z,58.75
2022-08-16T14:35:04.204Z,56.99
2022-08-16T14:37:33.161Z,58.71
2022-08-16T14:40:03.515Z,57.02
2022-08-16T14:42:32.462Z,56.83
2022-08-16T14:45:02.887Z,57.87
2022-08-16T14:47:35.006Z,59.39
2022-08-16T14:50:02.024Z,55.33
2022-08-16T14:52:54.019Z,53.36
2022-08-16T14:55:01.324Z,57.95
2022-08-16T14:57:30.138Z,55.28
2022-08-16T15:00:09.427Z,56.71
2022-08-16T15:02:41.259Z,57.93
2022-08-16T15:05:10.793Z,58.28
2022-08-16T15:07:40.698Z,58.43
2022-08-16T15:10:21.769Z,58.77
2022-08-16T15:12:40.548Z,57.60
2022-08-16T15:15:16.475Z,58.98
2022-08-16T15:17:54.206Z,58.55
2022-08-16T15:20:15.259Z,59.59
2022-08-16T15:22:46.676Z,60.96
2022-08-16T15:25:17.747Z,58.51
2022-08-16T15:27:55.418Z,57.77
2022-08-16T15:30:56.776Z,57.38
2022-08-16T15:32:49.461Z,57.33
2022-08-16T15:35:19.364Z,55.67
2022-08-16T15:37:54.682Z,58.94
2022-08-16T15:40:32.119Z,57.79
2022-08-16T15:42:54.118Z,60.05
2022-08-16T15:45:40.773Z,58.68
2022-08-16T15:48:17.251Z,58.42
2022-08-16T15:50:46.189Z,56.48
2022-08-16T15:53:16.488Z,59.10
2022-08-16T15:55:46.105Z,59.21
2022-08-16T15:58:35.648Z,59.52
2022-08-16T16:00:46.767Z,59.16
2022-08-16T16:03:17.508Z,58.66
2022-08-16T16:05:47.626Z,61.04
2022-08-16T16:08:24.209Z,61.51
2022-08-16T16:10:54.423Z,60.82
2022-08-16T16:13:20.309Z,61.20
2022-08-16T16:15:50.511Z,64.03
2022-08-16T16:18:20.107Z,61.40
2022-08-16T16:20:50.346Z,60.34
2022-08-16T16:23:23.520Z,61.42
2022-08-16T16:25:52.906Z,63.76
2022-08-16T16:28:46.307Z,63.08
2022-08-16T16:30:56.546Z,64.86
2022-08-16T16:33:25.143Z,68.91
2022-08-16T16:35:57.201Z,67.63
2022-08-16T16:38:29.141Z,66.91
2022-08-16T16:40:59.363Z,70.00
2022-08-16T16:43:31.809Z,69.95
2022-08-16T16:46:01.672Z,67.03
2022-08-16T16:48:35.064Z,67.99
2022-08-16T16:51:05.109Z,67.59
2022-08-16T16:53:37.657Z,68.68
2022-08-16T16:56:08.804Z,70.49
2022-08-16T16:58:54.247Z,69.12
2022-08-16T17:01:56.559Z,69.69
2022-08-16T17:03:54.700Z,70.74
2022-08-16T17:06:24.654Z,73.19
2022-08-16T17:08:53.757Z,75.85
2022-08-16T17:11:38.413Z,76.25
2022-08-16T17:14:17.324Z,79.28
2022-08-16T17:16:46.314Z,81.03
2022-08-16T17:19:17.377Z,82.46
2022-08-16T17:21:42.061Z,84.52
2022-08-16T17:24:18.002Z,87.74
2022-08-16T17:26:41.278Z,87.31
2022-08-16T17:29:12.566Z,89.37
2022-08-16T17:31:43.162Z,87.88
2022-08-16T17:34:28.859Z,86.83
2022-08-16T17:36:52.170Z,87.52
2022-08-16T17:39:14.734Z,92.61
2022-08-16T17:41:44.836Z,96.02
2022-08-16T17:44:13.770Z,95.94
2022-08-16T17:46:52.547Z,100.00
2022-08-16T17:49:13.585Z,100.00
2022-08-16T17:51:42.337Z,100.00
2022-08-16T17:54:18.458Z,100.00
2022-08-16T17:56:41.536Z,100.00
2022-08-16T17:59:10.630Z,100.00
2022-08-16T18:01:39.573Z,100.00
2022-08-16T18:04:10.031Z,100.00
2022-08-16T18:06:40.559Z,100.00
2022-08-16T18:09:09.505Z,100.00
2022-08-16T18:11:40.821Z,100.00
2022-08-16T18:14:10.928Z,100.00
2022-08-16T18:16:41.467Z,100.00
2022-08-16T18:19:10.769Z,100.00
2022-08-16T18:21:57.658Z,100.00
2022-08-16T18:24:28.343Z,100.00
2022-08-16T18:27:24.779Z,100.00
2022-08-16T18:29:28.393Z,100.00
2022-08-16T18:31:57.264Z,100.00
2022-08-16T18:34:25.974Z,100.00
2022-08-16T18:36:57.051Z,100.00
2022-08-16T18:39:26.246Z,100.00
2022-08-16T18:41:55.007Z,100.00
2022-08-16T18:44:29.211Z,100.00
2022-08-16T18:46:54.320Z,100.00
2022-08-16T18:49:23.060Z,100.00
2022-08-16T18:51:51.828Z,100.00
2022-08-16T18:54:20.614Z,100.00
2022-08-16T18:56:55.105Z,100.00
2022-08-16T18:59:21.185Z,100.00
2022-08-16T19:01:51.205Z,100.00
2022-08-16T19:04:56.455Z,100.00
2022-08-16T19:06:50.516Z,100.00
2022-08-16T19:09:19.332Z,100.00
2022-08-16T19:11:48.343Z,100.00
2022-08-16T19:14:17.096Z,100.00
2022-08-16T19:16:46.855Z,100.00
2022-08-16T19:19:16.768Z,100.00
2022-08-16T19:21:45.503Z,100.00
2022-08-16T19:24:17.869Z,100.00
2022-08-16T19:26:45.891Z,100.00
2022-08-16T19:29:14.651Z,100.00
2022-08-16T19:31:43.941Z,100.00
2022-08-16T19:34:14.319Z,100.00
2022-08-16T19:36:43.111Z,100.00
2022-08-16T19:39:15.211Z,100.00
2022-08-16T19:41:45.469Z,100.00
2022-08-16T19:44:14.575Z,100.00
2022-08-16T19:46:45.004Z,100.00
2022-08-16T19:49:16.406Z,100.00
2022-08-16T19:51:44.636Z,100.00
2022-08-16T19:54:13.451Z,100.00
2022-08-16T19:56:42.273Z,100.00
2022-08-16T19:59:20.574Z,100.00
2022-08-16T20:01:43.004Z,100.00
2022-08-16T20:04:13.176Z,100.00
2022-08-16T20:06:43.153Z,100.00
2022-08-16T20:09:14.892Z,100.00
2022-08-16T20:11:42.604Z,100.00
2022-08-16T20:14:12.004Z,100.00
2022-08-16T20:16:42.382Z,100.00
2022-08-16T20:19:11.186Z,100.00
2022-08-16T20:21:39.948Z,100.00
2022-08-16T20:24:32.600Z,100.00
2022-08-16T20:26:39.099Z,100.00
2022-08-16T20:29:07.909Z,100.00
2022-08-16T20:31:36.652Z,100.00
2022-08-16T20:34:10.504Z,100.00
2022-08-16T20:36:39.228Z,100.00
2022-08-16T20:39:10.705Z,100.00
2022-08-16T20:41:39.940Z,100.00
2022-08-16T20:44:10.220Z,100.00
2022-08-16T20:46:40.018Z,100.00
2022-08-16T20:49:10.180Z,100.00
2022-08-16T20:51:50.891Z,100.00
2022-08-16T20:54:11.644Z,100.00
2022-08-16T20:56:42.018Z,100.00
2022-08-16T20:59:10.800Z,100.00
2022-08-16T21:01:47.171Z,100.00
2022-08-16T21:04:10.467Z,100.00
2022-08-16T21:06:42.750Z,100.00
2022-08-16T21:09:13.136Z,100.00
2022-08-16T21:11:41.867Z,100.00
2022-08-16T21:14:11.874Z,100.00
2022-08-16T21:16:40.792Z,100.00
2022-08-16T21:19:09.604Z,100.00
2022-08-16T21:21:38.337Z,100.00
2022-08-16T21:24:07.148Z,100.00
2022-08-16T21:26:39.062Z,100.00
2022-08-16T21:29:11.153Z,100.00
2022-08-16T21:31:37.990Z,100.00
2022-08-16T21:34:06.798Z,100.00
2022-08-16T21:36:36.662Z,100.00
2022-08-16T21:39:07.001Z,100.00
2022-08-16T21:41:38.445Z,100.00
2022-08-16T21:44:07.347Z,100.00
2022-08-16T21:46:36.100Z,100.00
2022-08-16T21:49:06.827Z,100.00
2022-08-16T21:51:36.341Z,100.00
2022-08-16T21:54:05.713Z,100.00
2022-08-16T21:56:34.576Z,100.00
2022-08-16T21:59:05.024Z,100.00
2022-08-16T22:01:33.783Z,100.00
2022-08-16T22:04:36.874Z,100.00
2022-08-16T22:06:34.598Z,100.00
2022-08-16T22:09:04.022Z,100.00
2022-08-16T22:11:32.850Z,100.00
2022-08-16T22:14:01.667Z,100.00
2022-08-16T22:16:31.925Z,100.00
2022-08-16T22:19:01.428Z,100.00
2022-08-16T22:21:30.857Z,100.00
2022-08-16T22:23:59.747Z,100.00
2022-08-16T22:26:30.888Z,100.00
2022-08-16T22:29:04.674Z,100.00
2022-08-16T22:31:34.009Z,100.00
2022-08-16T22:34:03.326Z,100.00
2022-08-16T22:36:34.243Z,100.00
2022-08-16T22:39:04.769Z,100.00
2022-08-16T22:41:34.501Z,100.00
2022-08-16T22:44:04.083Z,100.00
2022-08-16T22:46:34.966Z,100.00
2022-08-16T22:49:04.740Z,100.00
2022-08-16T22:51:33.729Z,100.00
2022-08-16T22:54:34.231Z,100.00
2022-08-16T22:56:33.362Z,100.00
2022-08-16T22:59:02.105Z,100.00
2022-08-16T23:01:31.315Z,100.00
2022-08-16T23:04:00.715Z,100.00
2022-08-16T23:06:29.938Z,100.00
2022-08-16T23:08:58.771Z,100.00
2022-08-16T23:11:27.519Z,100.00
2022-08-16T23:13:57.272Z,100.00
2022-08-16T23:16:32.399Z,100.00
2022-08-16T23:18:57.520Z,100.00
2022-08-16T23:21:26.587Z,100.00
2022-08-16T23:23:55.491Z,100.00
2022-08-16T23:26:43.954Z,100.00
2022-08-16T23:28:55.614Z,100.00
2022-08-16T23:31:25.399Z,100.00
2022-08-16T23:33:54.123Z,100.00
2022-08-16T23:36:22.855Z,100.00
2022-08-16T23:38:51.603Z,100.00
2022-08-16T23:41:20.398Z,100.00
2022-08-16T23:43:49.148Z,100.00
2022-08-16T23:46:20.490Z,100.00
2022-08-16T23:49:56.958Z,100.00
2022-08-16T23:51:19.811Z,100.00
2022-08-16T23:53:48.613Z,100.00
2022-08-16T23:56:18.858Z,100.00
2022-08-16T23:58:49.102Z,100.00
